sensor_id;sensor_type;location;lat;lon;timestamp;temperature;humidity
5344;DHT22;2694;48.954;8.928;2023-03-14T00:00:56;10.00;99.90
5344;DHT22;2694;48.954;8.928;2023-03-14T00:03:23;10.10;99.90
5344;DHT22;2694;48.954;8.928;2023-03-14T00:05:50;10.10;99.90
5344;DHT22;2694;48.954;8.928;2023-03-14T00:08:17;10.10;99.90
5344;DHT22;2694;48.954;8.928;2023-03-14T00:10:48;10.00;99.90
5344;DHT22;2694;48.954;8.928;2023-03-14T00:13:15;10.00;99.90
5344;DHT22;2694;48.954;8.928;2023-03-14T00:15:41;10.00;99.90
5344;DHT22;2694;48.954;8.928;2023-03-14T00:18:08;10.00;99.90
5344;DHT22;2694;48.954;8.928;2023-03-14T00:20:35;10.10;99.90
5344;DHT22;2694;48.954;8.928;2023-03-14T00:23:02;10.10;99.90
5344;DHT22;2694;48.954;8.928;2023-03-14T00:25:29;10.10;99.90
5344;DHT22;2694;48.954;8.928;2023-03-14T00:27:57;10.10;99.90
5344;DHT22;2694;48.954;8.928;2023-03-14T00:30:24;10.10;99.90
5344;DHT22;2694;48.954;8.928;2023-03-14T00:32:51;10.10;99.90
5344;DHT22;2694;48.954;8.928;2023-03-14T00:35:18;10.00;99.90
5344;DHT22;2694;48.954;8.928;2023-03-14T00:37:45;10.00;99.90
5344;DHT22;2694;48.954;8.928;2023-03-14T00:40:12;10.00;99.90
5344;DHT22;2694;48.954;8.928;2023-03-14T00:42:39;10.00;99.90
5344;DHT22;2694;48.954;8.928;2023-03-14T00:45:08;10.00;99.90
5344;DHT22;2694;48.954;8.928;2023-03-14T00:47:35;10.00;99.90
5344;DHT22;2694;48.954;8.928;2023-03-14T00:50:02;10.00;99.90
5344;DHT22;2694;48.954;8.928;2023-03-14T00:52:29;10.00;99.90
5344;DHT22;2694;48.954;8.928;2023-03-14T00:54:56;10.00;99.90
5344;DHT22;2694;48.954;8.928;2023-03-14T00:57:23;10.00;99.90
5344;DHT22;2694;48.954;8.928;2023-03-14T00:59:51;10.00;99.90
5344;DHT22;2694;48.954;8.928;2023-03-14T01:02:19;10.00;99.90
5344;DHT22;2694;48.954;8.928;2023-03-14T01:04:47;10.00;99.90
5344;DHT22;2694;48.954;8.928;2023-03-14T01:07:14;10.00;99.90
5344;DHT22;2694;48.954;8.928;2023-03-14T01:09:41;10.00;99.90
5344;DHT22;2694;48.954;8.928;2023-03-14T01:12:08;9.90;99.90
5344;DHT22;2694;48.954;8.928;2023-03-14T01:14:35;10.00;99.90
5344;DHT22;2694;48.954;8.928;2023-03-14T01:17:02;10.00;99.90
5344;DHT22;2694;48.954;8.928;2023-03-14T01:19:30;10.00;99.90
5344;DHT22;2694;48.954;8.928;2023-03-14T01:21:57;10.10;99.90
5344;DHT22;2694;48.954;8.928;2023-03-14T01:24:24;10.10;99.90
5344;DHT22;2694;48.954;8.928;2023-03-14T01:26:51;10.20;99.90
5344;DHT22;2694;48.954;8.928;2023-03-14T01:29:18;10.20;99.90
5344;DHT22;2694;48.954;8.928;2023-03-14T01:31:44;10.20;99.90
5344;DHT22;2694;48.954;8.928;2023-03-14T01:34:11;10.20;99.90
5344;DHT22;2694;48.954;8.928;2023-03-14T01:36:40;10.20;99.90
5344;DHT22;2694;48.954;8.928;2023-03-14T01:39:06;10.10;99.90
5344;DHT22;2694;48.954;8.928;2023-03-14T01:41:34;10.10;99.90
5344;DHT22;2694;48.954;8.928;2023-03-14T01:44:01;10.10;99.90
5344;DHT22;2694;48.954;8.928;2023-03-14T01:46:40;10.20;99.90
5344;DHT22;2694;48.954;8.928;2023-03-14T01:49:11;10.10;99.90
5344;DHT22;2694;48.954;8.928;2023-03-14T01:51:46;10.10;99.90
5344;DHT22;2694;48.954;8.928;2023-03-14T01:54:18;10.00;99.90
5344;DHT22;2694;48.954;8.928;2023-03-14T01:56:50;10.00;99.90
5344;DHT22;2694;48.954;8.928;2023-03-14T01:59:18;10.00;99.90
5344;DHT22;2694;48.954;8.928;2023-03-14T02:01:47;10.00;99.90
5344;DHT22;2694;48.954;8.928;2023-03-14T02:04:16;10.00;99.90
5344;DHT22;2694;48.954;8.928;2023-03-14T02:06:55;10.00;99.90
5344;DHT22;2694;48.954;8.928;2023-03-14T02:09:23;9.90;99.90
5344;DHT22;2694;48.954;8.928;2023-03-14T02:11:50;9.90;99.90
5344;DHT22;2694;48.954;8.928;2023-03-14T02:14:27;9.80;99.90
5344;DHT22;2694;48.954;8.928;2023-03-14T02:16:56;10.00;99.90
5344;DHT22;2694;48.954;8.928;2023-03-14T02:19:31;9.90;99.90
5344;DHT22;2694;48.954;8.928;2023-03-14T02:22:07;10.00;99.90
5344;DHT22;2694;48.954;8.928;2023-03-14T02:24:42;9.90;99.90
5344;DHT22;2694;48.954;8.928;2023-03-14T02:27:13;9.90;99.90
5344;DHT22;2694;48.954;8.928;2023-03-14T02:29:46;9.90;99.90
5344;DHT22;2694;48.954;8.928;2023-03-14T02:32:17;9.80;99.90
5344;DHT22;2694;48.954;8.928;2023-03-14T02:34:51;9.80;99.90
5344;DHT22;2694;48.954;8.928;2023-03-14T02:37:20;9.90;99.90
5344;DHT22;2694;48.954;8.928;2023-03-14T02:39:48;9.90;99.90
5344;DHT22;2694;48.954;8.928;2023-03-14T02:42:17;9.80;99.90
5344;DHT22;2694;48.954;8.928;2023-03-14T02:44:52;9.80;99.90
5344;DHT22;2694;48.954;8.928;2023-03-14T02:47:28;9.80;99.90
5344;DHT22;2694;48.954;8.928;2023-03-14T02:50:00;9.80;99.90
5344;DHT22;2694;48.954;8.928;2023-03-14T02:52:28;9.90;99.90
5344;DHT22;2694;48.954;8.928;2023-03-14T02:54:56;9.90;99.90
5344;DHT22;2694;48.954;8.928;2023-03-14T02:57:24;9.90;99.90
5344;DHT22;2694;48.954;8.928;2023-03-14T02:59:51;10.00;99.90
5344;DHT22;2694;48.954;8.928;2023-03-14T03:02:18;9.90;99.90
5344;DHT22;2694;48.954;8.928;2023-03-14T03:04:48;10.00;99.90
5344;DHT22;2694;48.954;8.928;2023-03-14T03:07:14;10.00;99.90
5344;DHT22;2694;48.954;8.928;2023-03-14T03:09:41;9.90;99.90
5344;DHT22;2694;48.954;8.928;2023-03-14T03:12:08;9.90;99.90
5344;DHT22;2694;48.954;8.928;2023-03-14T03:14:36;9.80;99.90
5344;DHT22;2694;48.954;8.928;2023-03-14T03:17:03;9.80;99.90
5344;DHT22;2694;48.954;8.928;2023-03-14T03:19:30;9.80;99.90
5344;DHT22;2694;48.954;8.928;2023-03-14T03:21:57;9.80;99.90
5344;DHT22;2694;48.954;8.928;2023-03-14T03:24:24;9.70;99.90
5344;DHT22;2694;48.954;8.928;2023-03-14T03:26:51;9.70;99.90
5344;DHT22;2694;48.954;8.928;2023-03-14T03:29:19;9.70;99.90
5344;DHT22;2694;48.954;8.928;2023-03-14T03:31:47;9.60;99.90
5344;DHT22;2694;48.954;8.928;2023-03-14T03:34:14;9.60;99.90
5344;DHT22;2694;48.954;8.928;2023-03-14T03:36:41;9.50;99.90
5344;DHT22;2694;48.954;8.928;2023-03-14T03:39:08;9.60;99.90
5344;DHT22;2694;48.954;8.928;2023-03-14T03:41:35;9.60;99.90
5344;DHT22;2694;48.954;8.928;2023-03-14T03:44:02;9.60;99.90
5344;DHT22;2694;48.954;8.928;2023-03-14T03:46:29;9.60;99.90
5344;DHT22;2694;48.954;8.928;2023-03-14T03:48:58;9.50;99.90
5344;DHT22;2694;48.954;8.928;2023-03-14T03:51:25;9.40;99.90
5344;DHT22;2694;48.954;8.928;2023-03-14T03:53:52;9.40;99.90
5344;DHT22;2694;48.954;8.928;2023-03-14T03:56:19;9.40;99.90
5344;DHT22;2694;48.954;8.928;2023-03-14T03:58:46;9.40;99.90
5344;DHT22;2694;48.954;8.928;2023-03-14T04:01:13;9.30;99.90
5344;DHT22;2694;48.954;8.928;2023-03-14T04:03:40;9.30;99.90
5344;DHT22;2694;48.954;8.928;2023-03-14T04:06:10;9.30;99.90
5344;DHT22;2694;48.954;8.928;2023-03-14T04:08:37;9.30;99.90
5344;DHT22;2694;48.954;8.928;2023-03-14T04:11:04;9.20;99.90
5344;DHT22;2694;48.954;8.928;2023-03-14T04:13:32;9.10;99.90
5344;DHT22;2694;48.954;8.928;2023-03-14T04:15:59;9.10;99.90
5344;DHT22;2694;48.954;8.928;2023-03-14T04:18:26;9.10;99.90
5344;DHT22;2694;48.954;8.928;2023-03-14T04:20:53;9.00;99.90
5344;DHT22;2694;48.954;8.928;2023-03-14T04:23:22;9.00;99.90
5344;DHT22;2694;48.954;8.928;2023-03-14T04:25:50;9.10;99.90
5344;DHT22;2694;48.954;8.928;2023-03-14T04:28:17;9.10;99.90
5344;DHT22;2694;48.954;8.928;2023-03-14T04:30:44;9.10;99.90
5344;DHT22;2694;48.954;8.928;2023-03-14T04:33:11;9.00;99.90
5344;DHT22;2694;48.954;8.928;2023-03-14T04:35:42;9.10;99.90
5344;DHT22;2694;48.954;8.928;2023-03-14T04:38:09;9.00;99.90
5344;DHT22;2694;48.954;8.928;2023-03-14T04:40:38;9.00;99.90
5344;DHT22;2694;48.954;8.928;2023-03-14T04:43:06;9.00;99.90
5344;DHT22;2694;48.954;8.928;2023-03-14T04:45:33;9.00;99.90
5344;DHT22;2694;48.954;8.928;2023-03-14T04:48:00;8.90;99.90
5344;DHT22;2694;48.954;8.928;2023-03-14T04:50:27;8.90;99.90
5344;DHT22;2694;48.954;8.928;2023-03-14T04:52:54;8.90;99.90
5344;DHT22;2694;48.954;8.928;2023-03-14T04:55:21;8.80;99.90
5344;DHT22;2694;48.954;8.928;2023-03-14T04:57:49;8.80;99.90
5344;DHT22;2694;48.954;8.928;2023-03-14T05:00:17;8.80;99.90
5344;DHT22;2694;48.954;8.928;2023-03-14T05:02:44;8.80;99.90
5344;DHT22;2694;48.954;8.928;2023-03-14T05:05:11;8.70;99.90
5344;DHT22;2694;48.954;8.928;2023-03-14T05:07:38;8.70;99.90
5344;DHT22;2694;48.954;8.928;2023-03-14T05:10:06;8.80;99.90
5344;DHT22;2694;48.954;8.928;2023-03-14T05:12:33;8.80;99.90
5344;DHT22;2694;48.954;8.928;2023-03-14T05:15:01;8.70;99.90
5344;DHT22;2694;48.954;8.928;2023-03-14T05:17:30;8.70;99.90
5344;DHT22;2694;48.954;8.928;2023-03-14T05:19:56;8.70;99.90
5344;DHT22;2694;48.954;8.928;2023-03-14T05:22:23;8.60;99.90
5344;DHT22;2694;48.954;8.928;2023-03-14T05:24:50;8.70;99.90
5344;DHT22;2694;48.954;8.928;2023-03-14T05:27:18;8.70;99.90
5344;DHT22;2694;48.954;8.928;2023-03-14T05:29:47;8.70;99.90
5344;DHT22;2694;48.954;8.928;2023-03-14T05:32:15;8.80;99.90
5344;DHT22;2694;48.954;8.928;2023-03-14T05:34:42;8.80;99.90
5344;DHT22;2694;48.954;8.928;2023-03-14T05:37:09;8.90;99.90
5344;DHT22;2694;48.954;8.928;2023-03-14T05:39:36;9.10;99.90
5344;DHT22;2694;48.954;8.928;2023-03-14T05:42:03;9.20;99.90
5344;DHT22;2694;48.954;8.928;2023-03-14T05:44:30;9.30;99.90
5344;DHT22;2694;48.954;8.928;2023-03-14T05:46:57;9.40;99.90
5344;DHT22;2694;48.954;8.928;2023-03-14T05:49:25;9.50;99.90
5344;DHT22;2694;48.954;8.928;2023-03-14T05:51:52;9.50;99.90
5344;DHT22;2694;48.954;8.928;2023-03-14T05:54:19;9.50;99.90
5344;DHT22;2694;48.954;8.928;2023-03-14T05:56:45;9.60;99.90
5344;DHT22;2694;48.954;8.928;2023-03-14T05:59:12;9.50;99.90
5344;DHT22;2694;48.954;8.928;2023-03-14T06:01:40;9.50;99.90
5344;DHT22;2694;48.954;8.928;2023-03-14T06:04:07;9.50;99.90
5344;DHT22;2694;48.954;8.928;2023-03-14T06:06:35;9.40;99.90
5344;DHT22;2694;48.954;8.928;2023-03-14T06:09:02;9.50;99.90
5344;DHT22;2694;48.954;8.928;2023-03-14T06:11:29;9.40;99.90
5344;DHT22;2694;48.954;8.928;2023-03-14T06:13:56;9.50;99.90
5344;DHT22;2694;48.954;8.928;2023-03-14T06:16:23;9.40;99.90
5344;DHT22;2694;48.954;8.928;2023-03-14T06:18:50;9.30;99.90
5344;DHT22;2694;48.954;8.928;2023-03-14T06:21:18;9.20;99.90
5344;DHT22;2694;48.954;8.928;2023-03-14T06:23:46;9.10;99.90
5344;DHT22;2694;48.954;8.928;2023-03-14T06:26:13;9.10;99.90
5344;DHT22;2694;48.954;8.928;2023-03-14T06:28:40;9.20;99.90
5344;DHT22;2694;48.954;8.928;2023-03-14T06:31:07;9.20;99.90
5344;DHT22;2694;48.954;8.928;2023-03-14T06:33:33;9.30;99.90
5344;DHT22;2694;48.954;8.928;2023-03-14T06:36:00;9.30;99.90
5344;DHT22;2694;48.954;8.928;2023-03-14T06:38:27;9.30;99.90
5344;DHT22;2694;48.954;8.928;2023-03-14T06:40:55;9.30;99.90
5344;DHT22;2694;48.954;8.928;2023-03-14T06:43:22;9.20;99.90
5344;DHT22;2694;48.954;8.928;2023-03-14T06:45:49;9.20;99.90
5344;DHT22;2694;48.954;8.928;2023-03-14T06:48:16;9.20;99.90
5344;DHT22;2694;48.954;8.928;2023-03-14T06:50:44;9.20;99.90
5344;DHT22;2694;48.954;8.928;2023-03-14T06:53:11;9.20;99.90
5344;DHT22;2694;48.954;8.928;2023-03-14T06:55:38;9.20;99.90
5344;DHT22;2694;48.954;8.928;2023-03-14T06:58:06;9.40;99.90
5344;DHT22;2694;48.954;8.928;2023-03-14T07:00:34;9.60;99.90
5344;DHT22;2694;48.954;8.928;2023-03-14T07:03:01;9.80;99.90
5344;DHT22;2694;48.954;8.928;2023-03-14T07:05:28;9.90;99.90
5344;DHT22;2694;48.954;8.928;2023-03-14T07:07:55;10.20;99.90
5344;DHT22;2694;48.954;8.928;2023-03-14T07:10:22;10.30;99.90
5344;DHT22;2694;48.954;8.928;2023-03-14T07:12:49;10.50;99.90
5344;DHT22;2694;48.954;8.928;2023-03-14T07:15:17;10.60;99.90
5344;DHT22;2694;48.954;8.928;2023-03-14T07:17:44;10.70;99.90
5344;DHT22;2694;48.954;8.928;2023-03-14T07:20:13;10.80;99.90
5344;DHT22;2694;48.954;8.928;2023-03-14T07:22:40;10.80;99.90
5344;DHT22;2694;48.954;8.928;2023-03-14T07:25:08;10.80;99.90
5344;DHT22;2694;48.954;8.928;2023-03-14T07:27:37;10.90;99.90
5344;DHT22;2694;48.954;8.928;2023-03-14T07:30:05;10.80;99.90
5344;DHT22;2694;48.954;8.928;2023-03-14T07:32:33;10.90;99.90
5344;DHT22;2694;48.954;8.928;2023-03-14T07:35:00;11.00;99.90
5344;DHT22;2694;48.954;8.928;2023-03-14T07:37:27;11.10;99.90
5344;DHT22;2694;48.954;8.928;2023-03-14T07:39:54;11.30;99.90
5344;DHT22;2694;48.954;8.928;2023-03-14T07:42:21;11.40;99.90
5344;DHT22;2694;48.954;8.928;2023-03-14T07:44:48;11.40;99.90
5344;DHT22;2694;48.954;8.928;2023-03-14T07:47:14;11.50;99.90
5344;DHT22;2694;48.954;8.928;2023-03-14T07:49:43;11.50;99.90
5344;DHT22;2694;48.954;8.928;2023-03-14T07:52:10;11.50;99.90
5344;DHT22;2694;48.954;8.928;2023-03-14T07:54:37;11.60;99.90
5344;DHT22;2694;48.954;8.928;2023-03-14T07:57:03;11.60;99.90
5344;DHT22;2694;48.954;8.928;2023-03-14T07:59:30;11.70;99.90
5344;DHT22;2694;48.954;8.928;2023-03-14T08:01:57;11.80;99.90
5344;DHT22;2694;48.954;8.928;2023-03-14T08:04:24;11.90;99.90
5344;DHT22;2694;48.954;8.928;2023-03-14T08:06:54;11.90;99.90
5344;DHT22;2694;48.954;8.928;2023-03-14T08:09:20;11.90;99.90
5344;DHT22;2694;48.954;8.928;2023-03-14T08:11:47;12.00;99.90
5344;DHT22;2694;48.954;8.928;2023-03-14T08:14:14;12.10;99.90
5344;DHT22;2694;48.954;8.928;2023-03-14T08:16:41;12.10;99.90
5344;DHT22;2694;48.954;8.928;2023-03-14T08:19:08;12.30;99.90
5344;DHT22;2694;48.954;8.928;2023-03-14T08:21:35;12.60;99.90
5344;DHT22;2694;48.954;8.928;2023-03-14T08:24:03;12.90;99.90
5344;DHT22;2694;48.954;8.928;2023-03-14T08:26:30;13.30;99.90
5344;DHT22;2694;48.954;8.928;2023-03-14T08:28:57;13.40;99.90
5344;DHT22;2694;48.954;8.928;2023-03-14T08:31:24;13.30;99.90
5344;DHT22;2694;48.954;8.928;2023-03-14T08:33:51;13.10;99.90
5344;DHT22;2694;48.954;8.928;2023-03-14T08:36:18;13.00;99.90
5344;DHT22;2694;48.954;8.928;2023-03-14T08:38:45;12.90;99.90
5344;DHT22;2694;48.954;8.928;2023-03-14T08:41:14;12.80;99.90
5344;DHT22;2694;48.954;8.928;2023-03-14T08:43:40;12.60;99.90
5344;DHT22;2694;48.954;8.928;2023-03-14T08:46:07;12.40;99.90
5344;DHT22;2694;48.954;8.928;2023-03-14T08:48:34;12.50;99.90
5344;DHT22;2694;48.954;8.928;2023-03-14T08:51:05;12.50;99.90
5344;DHT22;2694;48.954;8.928;2023-03-14T08:53:32;12.40;99.90
5344;DHT22;2694;48.954;8.928;2023-03-14T08:55:59;12.30;99.90
5344;DHT22;2694;48.954;8.928;2023-03-14T08:58:27;12.20;99.90
5344;DHT22;2694;48.954;8.928;2023-03-14T09:00:54;12.10;99.90
5344;DHT22;2694;48.954;8.928;2023-03-14T09:03:22;12.00;99.90
5344;DHT22;2694;48.954;8.928;2023-03-14T09:05:49;11.90;99.90
5344;DHT22;2694;48.954;8.928;2023-03-14T09:08:16;11.70;99.90
5344;DHT22;2694;48.954;8.928;2023-03-14T09:10:43;11.50;99.90
5344;DHT22;2694;48.954;8.928;2023-03-14T09:13:10;11.60;99.90
5344;DHT22;2694;48.954;8.928;2023-03-14T09:15:38;11.60;99.90
5344;DHT22;2694;48.954;8.928;2023-03-14T09:18:07;11.70;99.90
5344;DHT22;2694;48.954;8.928;2023-03-14T09:20:34;11.70;99.90
5344;DHT22;2694;48.954;8.928;2023-03-14T09:23:01;11.60;99.90
5344;DHT22;2694;48.954;8.928;2023-03-14T09:25:28;11.70;99.90
5344;DHT22;2694;48.954;8.928;2023-03-14T09:27:55;11.70;99.90
5344;DHT22;2694;48.954;8.928;2023-03-14T09:30:22;11.80;99.90
5344;DHT22;2694;48.954;8.928;2023-03-14T09:32:50;11.80;99.90
5344;DHT22;2694;48.954;8.928;2023-03-14T09:35:17;11.80;99.90
5344;DHT22;2694;48.954;8.928;2023-03-14T09:37:43;11.70;99.90
5344;DHT22;2694;48.954;8.928;2023-03-14T09:40:12;11.70;99.90
5344;DHT22;2694;48.954;8.928;2023-03-14T09:42:40;11.70;99.90
5344;DHT22;2694;48.954;8.928;2023-03-14T09:45:11;11.70;99.90
5344;DHT22;2694;48.954;8.928;2023-03-14T09:47:39;11.70;99.90
5344;DHT22;2694;48.954;8.928;2023-03-14T09:50:13;11.70;99.90
5344;DHT22;2694;48.954;8.928;2023-03-14T09:52:45;11.80;99.90
5344;DHT22;2694;48.954;8.928;2023-03-14T09:55:14;12.00;99.90
5344;DHT22;2694;48.954;8.928;2023-03-14T09:57:43;12.30;99.90
5344;DHT22;2694;48.954;8.928;2023-03-14T10:00:15;12.30;99.90
5344;DHT22;2694;48.954;8.928;2023-03-14T10:02:47;12.50;99.90
5344;DHT22;2694;48.954;8.928;2023-03-14T10:05:20;12.40;99.90
5344;DHT22;2694;48.954;8.928;2023-03-14T10:07:47;12.40;99.90
5344;DHT22;2694;48.954;8.928;2023-03-14T10:10:18;12.40;99.90
5344;DHT22;2694;48.954;8.928;2023-03-14T10:12:47;12.30;99.90
5344;DHT22;2694;48.954;8.928;2023-03-14T10:15:27;12.40;99.90
5344;DHT22;2694;48.954;8.928;2023-03-14T10:17:58;12.40;99.90
5344;DHT22;2694;48.954;8.928;2023-03-14T10:20:30;12.60;99.90
5344;DHT22;2694;48.954;8.928;2023-03-14T10:22:59;12.60;99.90
5344;DHT22;2694;48.954;8.928;2023-03-14T10:25:28;12.60;99.90
5344;DHT22;2694;48.954;8.928;2023-03-14T10:27:55;12.60;99.90
5344;DHT22;2694;48.954;8.928;2023-03-14T10:30:38;12.50;99.90
5344;DHT22;2694;48.954;8.928;2023-03-14T10:33:11;12.40;99.90
5344;DHT22;2694;48.954;8.928;2023-03-14T10:35:47;12.20;99.90
5344;DHT22;2694;48.954;8.928;2023-03-14T10:38:18;12.10;99.90
5344;DHT22;2694;48.954;8.928;2023-03-14T10:40:47;12.10;99.90
5344;DHT22;2694;48.954;8.928;2023-03-14T10:43:19;12.00;99.90
5344;DHT22;2694;48.954;8.928;2023-03-14T10:45:52;11.90;99.90
5344;DHT22;2694;48.954;8.928;2023-03-14T10:48:29;12.00;99.90
5344;DHT22;2694;48.954;8.928;2023-03-14T10:51:03;11.90;99.90
5344;DHT22;2694;48.954;8.928;2023-03-14T10:53:34;12.00;99.90
5344;DHT22;2694;48.954;8.928;2023-03-14T10:56:05;11.90;99.90
5344;DHT22;2694;48.954;8.928;2023-03-14T10:58:36;11.70;99.90
5344;DHT22;2694;48.954;8.928;2023-03-14T11:01:16;11.70;99.90
5344;DHT22;2694;48.954;8.928;2023-03-14T11:03:51;11.50;99.90
5344;DHT22;2694;48.954;8.928;2023-03-14T11:06:25;11.40;99.90
5344;DHT22;2694;48.954;8.928;2023-03-14T11:08:57;11.40;99.90
5344;DHT22;2694;48.954;8.928;2023-03-14T11:11:31;11.40;99.90
5344;DHT22;2694;48.954;8.928;2023-03-14T11:14:08;11.30;99.90
5344;DHT22;2694;48.954;8.928;2023-03-14T11:16:48;11.20;99.90
5344;DHT22;2694;48.954;8.928;2023-03-14T11:19:21;11.20;99.90
5344;DHT22;2694;48.954;8.928;2023-03-14T11:21:55;11.10;99.90
5344;DHT22;2694;48.954;8.928;2023-03-14T11:24:39;10.90;99.90
5344;DHT22;2694;48.954;8.928;2023-03-14T11:27:15;10.80;99.90
5344;DHT22;2694;48.954;8.928;2023-03-14T11:29:51;10.70;99.90
5344;DHT22;2694;48.954;8.928;2023-03-14T11:32:25;10.60;99.90
5344;DHT22;2694;48.954;8.928;2023-03-14T11:34:55;10.60;99.90
5344;DHT22;2694;48.954;8.928;2023-03-14T11:37:27;10.70;99.90
5344;DHT22;2694;48.954;8.928;2023-03-14T11:40:00;10.80;99.90
5344;DHT22;2694;48.954;8.928;2023-03-14T11:42:33;10.80;99.90
5344;DHT22;2694;48.954;8.928;2023-03-14T11:45:00;10.70;99.90
5344;DHT22;2694;48.954;8.928;2023-03-14T11:47:31;10.60;99.90
5344;DHT22;2694;48.954;8.928;2023-03-14T11:50:02;10.40;99.90
5344;DHT22;2694;48.954;8.928;2023-03-14T11:52:33;10.30;99.90
5344;DHT22;2694;48.954;8.928;2023-03-14T11:55:05;10.20;99.90
5344;DHT22;2694;48.954;8.928;2023-03-14T11:57:33;10.20;99.90
5344;DHT22;2694;48.954;8.928;2023-03-14T12:00:04;10.10;99.90
5344;DHT22;2694;48.954;8.928;2023-03-14T12:02:46;10.10;99.90
5344;DHT22;2694;48.954;8.928;2023-03-14T12:05:29;10.20;99.90
5344;DHT22;2694;48.954;8.928;2023-03-14T12:08:26;10.30;99.90
5344;DHT22;2694;48.954;8.928;2023-03-14T12:11:00;10.40;99.90
5344;DHT22;2694;48.954;8.928;2023-03-14T12:13:29;10.30;99.90
5344;DHT22;2694;48.954;8.928;2023-03-14T12:16:00;10.10;99.90
5344;DHT22;2694;48.954;8.928;2023-03-14T12:18:29;9.90;99.90
5344;DHT22;2694;48.954;8.928;2023-03-14T12:20:59;9.70;99.90
5344;DHT22;2694;48.954;8.928;2023-03-14T12:23:35;9.70;99.90
5344;DHT22;2694;48.954;8.928;2023-03-14T12:26:13;9.60;99.90
5344;DHT22;2694;48.954;8.928;2023-03-14T12:28:43;9.60;99.90
5344;DHT22;2694;48.954;8.928;2023-03-14T12:31:36;9.40;99.90
5344;DHT22;2694;48.954;8.928;2023-03-14T12:34:30;9.10;99.90
5344;DHT22;2694;48.954;8.928;2023-03-14T12:37:20;9.00;99.90
5344;DHT22;2694;48.954;8.928;2023-03-14T12:39:59;8.80;99.90
5344;DHT22;2694;48.954;8.928;2023-03-14T12:42:51;8.80;99.90
5344;DHT22;2694;48.954;8.928;2023-03-14T12:45:23;8.80;99.90
5344;DHT22;2694;48.954;8.928;2023-03-14T12:47:53;8.90;99.90
5344;DHT22;2694;48.954;8.928;2023-03-14T12:50:25;9.00;99.90
5344;DHT22;2694;48.954;8.928;2023-03-14T12:53:21;9.10;99.90
5344;DHT22;2694;48.954;8.928;2023-03-14T12:56:00;9.20;99.90
5344;DHT22;2694;48.954;8.928;2023-03-14T12:58:31;9.40;99.90
5344;DHT22;2694;48.954;8.928;2023-03-14T13:01:03;9.50;99.90
5344;DHT22;2694;48.954;8.928;2023-03-14T13:03:39;9.80;99.90
5344;DHT22;2694;48.954;8.928;2023-03-14T13:06:09;10.00;99.90
5344;DHT22;2694;48.954;8.928;2023-03-14T13:08:39;10.10;99.90
5344;DHT22;2694;48.954;8.928;2023-03-14T13:11:10;9.80;99.90
5344;DHT22;2694;48.954;8.928;2023-03-14T13:13:44;9.80;99.90
5344;DHT22;2694;48.954;8.928;2023-03-14T13:16:16;9.70;99.90
5344;DHT22;2694;48.954;8.928;2023-03-14T13:18:44;9.70;99.90
5344;DHT22;2694;48.954;8.928;2023-03-14T13:21:14;9.60;99.90
5344;DHT22;2694;48.954;8.928;2023-03-14T13:23:55;9.70;99.90
5344;DHT22;2694;48.954;8.928;2023-03-14T13:26:31;9.60;99.90
5344;DHT22;2694;48.954;8.928;2023-03-14T13:28:59;9.60;99.90
5344;DHT22;2694;48.954;8.928;2023-03-14T13:31:26;9.60;99.90
5344;DHT22;2694;48.954;8.928;2023-03-14T13:33:58;9.70;99.90
5344;DHT22;2694;48.954;8.928;2023-03-14T13:36:25;9.80;99.90
5344;DHT22;2694;48.954;8.928;2023-03-14T13:38:56;10.00;99.90
5344;DHT22;2694;48.954;8.928;2023-03-14T13:41:25;10.00;99.50
5344;DHT22;2694;48.954;8.928;2023-03-14T13:43:58;9.90;99.30
5344;DHT22;2694;48.954;8.928;2023-03-14T13:46:27;9.90;99.80
5344;DHT22;2694;48.954;8.928;2023-03-14T13:48:56;9.80;99.30
5344;DHT22;2694;48.954;8.928;2023-03-14T13:51:24;9.70;99.10
5344;DHT22;2694;48.954;8.928;2023-03-14T13:53:55;9.80;98.90
5344;DHT22;2694;48.954;8.928;2023-03-14T13:56:26;9.90;98.50
5344;DHT22;2694;48.954;8.928;2023-03-14T13:58:53;9.90;97.30
5344;DHT22;2694;48.954;8.928;2023-03-14T14:01:22;9.90;96.90
5344;DHT22;2694;48.954;8.928;2023-03-14T14:03:51;9.60;96.30
5344;DHT22;2694;48.954;8.928;2023-03-14T14:06:30;9.50;96.70
5344;DHT22;2694;48.954;8.928;2023-03-14T14:08:59;9.40;97.20
5344;DHT22;2694;48.954;8.928;2023-03-14T14:11:39;9.40;98.30
5344;DHT22;2694;48.954;8.928;2023-03-14T14:14:12;9.50;97.70
5344;DHT22;2694;48.954;8.928;2023-03-14T14:16:40;9.50;97.70
5344;DHT22;2694;48.954;8.928;2023-03-14T14:19:08;9.30;96.50
5344;DHT22;2694;48.954;8.928;2023-03-14T14:21:35;9.30;97.20
5344;DHT22;2694;48.954;8.928;2023-03-14T14:24:03;9.20;96.90
5344;DHT22;2694;48.954;8.928;2023-03-14T14:26:32;9.20;96.30
5344;DHT22;2694;48.954;8.928;2023-03-14T14:29:02;9.20;97.10
5344;DHT22;2694;48.954;8.928;2023-03-14T14:31:29;9.20;97.00
5344;DHT22;2694;48.954;8.928;2023-03-14T14:33:57;9.20;96.90
5344;DHT22;2694;48.954;8.928;2023-03-14T14:36:27;9.30;97.20
5344;DHT22;2694;48.954;8.928;2023-03-14T14:38:58;9.30;96.50
5344;DHT22;2694;48.954;8.928;2023-03-14T14:41:31;9.40;96.50
5344;DHT22;2694;48.954;8.928;2023-03-14T14:44:00;9.50;96.70
5344;DHT22;2694;48.954;8.928;2023-03-14T14:46:32;9.50;96.40
5344;DHT22;2694;48.954;8.928;2023-03-14T14:49:04;9.50;97.10
5344;DHT22;2694;48.954;8.928;2023-03-14T14:51:33;9.60;97.00
5344;DHT22;2694;48.954;8.928;2023-03-14T14:54:12;9.80;96.40
5344;DHT22;2694;48.954;8.928;2023-03-14T14:56:44;10.00;96.10
5344;DHT22;2694;48.954;8.928;2023-03-14T14:59:21;9.90;95.90
5344;DHT22;2694;48.954;8.928;2023-03-14T15:01:49;9.70;95.70
5344;DHT22;2694;48.954;8.928;2023-03-14T15:04:17;9.70;95.70
5344;DHT22;2694;48.954;8.928;2023-03-14T15:06:46;9.60;95.80
5344;DHT22;2694;48.954;8.928;2023-03-14T15:09:14;9.60;95.90
5344;DHT22;2694;48.954;8.928;2023-03-14T15:11:43;9.60;95.80
5344;DHT22;2694;48.954;8.928;2023-03-14T15:14:10;9.60;95.80
5344;DHT22;2694;48.954;8.928;2023-03-14T15:16:38;9.50;96.00
5344;DHT22;2694;48.954;8.928;2023-03-14T15:19:12;9.40;96.00
5344;DHT22;2694;48.954;8.928;2023-03-14T15:21:39;9.20;95.70
5344;DHT22;2694;48.954;8.928;2023-03-14T15:24:08;9.20;96.10
5344;DHT22;2694;48.954;8.928;2023-03-14T15:26:35;9.20;96.20
5344;DHT22;2694;48.954;8.928;2023-03-14T15:29:03;9.20;96.50
5344;DHT22;2694;48.954;8.928;2023-03-14T15:31:35;9.20;97.00
5344;DHT22;2694;48.954;8.928;2023-03-14T15:34:02;9.20;96.70
5344;DHT22;2694;48.954;8.928;2023-03-14T15:36:30;9.20;97.10
5344;DHT22;2694;48.954;8.928;2023-03-14T15:38:58;9.20;97.20
5344;DHT22;2694;48.954;8.928;2023-03-14T15:41:26;9.00;97.20
5344;DHT22;2694;48.954;8.928;2023-03-14T15:43:54;9.00;97.50
5344;DHT22;2694;48.954;8.928;2023-03-14T15:46:22;8.90;97.70
5344;DHT22;2694;48.954;8.928;2023-03-14T15:48:50;8.80;98.00
5344;DHT22;2694;48.954;8.928;2023-03-14T15:51:17;8.70;98.30
5344;DHT22;2694;48.954;8.928;2023-03-14T15:53:44;8.70;98.40
5344;DHT22;2694;48.954;8.928;2023-03-14T15:56:12;8.80;98.20
5344;DHT22;2694;48.954;8.928;2023-03-14T15:58:40;8.80;98.50
5344;DHT22;2694;48.954;8.928;2023-03-14T16:01:08;8.80;98.50
5344;DHT22;2694;48.954;8.928;2023-03-14T16:03:36;8.80;98.50
5344;DHT22;2694;48.954;8.928;2023-03-14T16:06:04;8.70;98.80
5344;DHT22;2694;48.954;8.928;2023-03-14T16:08:31;8.60;99.00
5344;DHT22;2694;48.954;8.928;2023-03-14T16:10:59;8.60;99.40
5344;DHT22;2694;48.954;8.928;2023-03-14T16:13:26;8.60;99.50
5344;DHT22;2694;48.954;8.928;2023-03-14T16:15:54;8.60;99.80
5344;DHT22;2694;48.954;8.928;2023-03-14T16:18:21;8.70;99.90
5344;DHT22;2694;48.954;8.928;2023-03-14T16:20:54;8.60;99.90
5344;DHT22;2694;48.954;8.928;2023-03-14T16:23:21;8.60;99.90